Peter R. Cresswell — VCBZ — position and weather

sailwx.info

Track history (hours):
 
Tides and Currents Weather Stations Pressure Air Temp Water Temp Dewpoint Dewpoint Depression Visibility Wind Speed Wind Dir Waves Ship Positions

Peter R. Cresswell

ex Algowest

Last reported at 2015-Apr-21 01:13 UTC. Time now 2015-Apr-28 06:47 UTC.
Position N 46°52' W 091°39'.

Length 219.2 m; beam 23.2 m; draft 8.7 m.

Type: Ship. MMSI: 316001697.

Date/timePositionNaut miles runAvg speedWind from/ knotsBaromVisibWave heightAir tempDewpointWater temp
2015-Apr-21 01:13N 46°52' W 091°39'811.7
2015-Apr-21 00:32N 46°48' W 091°49'1010.3
2015-Apr-20 23:34N 46°42' W 092°01'0 0.5
2015-Apr-20 22:33N 46°42' W 092°01'0 0.0
2015-Apr-20 21:33N 46°42' W 092°01'0 0.0
2015-Apr-20 20:33N 46°42' W 092°01'0 0.0
2015-Apr-20 19:33N 46°42' W 092°01'0 0.0
2015-Apr-20 18:33N 46°42' W 092°01'0 0.0
2015-Apr-20 17:33N 46°42' W 092°01'0 0.0
2015-Apr-20 16:33N 46°42' W 092°01'0 0.0
2015-Apr-20 15:33N 46°42' W 092°01'0 0.0
2015-Apr-20 14:33N 46°42' W 092°01'0 0.0
2015-Apr-20 13:33N 46°42' W 092°01'0 0.0
2015-Apr-20 12:31N 46°42' W 092°01'0 0.2
2015-Apr-20 11:33N 46°42' W 092°01'2 2.2
2015-Apr-20 10:33N 46°43' W 091°58'0 0.0
2015-Apr-20 09:33N 46°43' W 091°58'0 0.0
2015-Apr-20 08:33N 46°43' W 091°58'0 0.0
2015-Apr-20 07:33N 46°43' W 091°58'0 0.1
2015-Apr-20 06:33N 46°43' W 091°58'0 0.1
2015-Apr-20 05:33N 46°43' W 091°58'0 0.0
2015-Apr-20 04:33N 46°43' W 091°58'0 0.0
2015-Apr-20 03:33N 46°43' W 091°58'0 0.1
2015-Apr-20 02:32N 46°43' W 091°59'0 0.0
2015-Apr-20 01:33N 46°43' W 091°58'0 0.0
2015-Apr-20 00:32N 46°43' W 091°58'0 0.0
2015-Apr-19 23:33N 46°43' W 091°58'0 0.0
2015-Apr-19 22:33N 46°43' W 091°58'0 0.0
2015-Apr-19 21:33N 46°43' W 091°58'0 0.0
2015-Apr-19 20:33N 46°43' W 091°58'0 0.0
2015-Apr-19 19:33N 46°43' W 091°58'0 0.0
2015-Apr-19 18:33N 46°43' W 091°59'0 0.0
2015-Apr-19 17:33N 46°43' W 091°58'0 0.1
2015-Apr-19 16:33N 46°43' W 091°58'8 8.2
2015-Apr-19 15:33N 46°47' W 091°48'1212.2
2015-Apr-19 14:33N 46°53' W 091°32'278 8.1
2015-Apr-18 04:17N 46°38' W 084°47'4 6.1
2015-Apr-18 03:32N 46°35' W 084°43'7 7.5
2015-Apr-18 02:33N 46°29' W 084°36'6 5.8
2015-Apr-18 01:33N 46°29' W 084°27'13 3.0
2015-Apr-17 21:23N 46°21' W 084°12'23 7.0
2015-Apr-17 18:08N 46°02' W 083°55'4 7.7
2015-Apr-17 17:33N 45°58' W 083°53'1511.1
2015-Apr-17 16:11N 45°45' W 083°41'812.1
2015-Apr-17 15:33N 45°40' W 083°33'  
2015-Apr-14 08:28N 42°21' W 080°37'910.1
2015-Apr-14 07:33N 42°24' W 080°25'1010.0
2015-Apr-14 06:32N 42°28' W 080°13'10 9.9
2015-Apr-14 05:33N 42°31' W 080°00'1111.0
2015-Apr-14 04:32N 42°37' W 079°47'  
Track history (hours):
 
Tides and Currents Weather Stations Pressure Air Temp Water Temp Dewpoint Dewpoint Depression Visibility Wind Speed Wind Dir Waves Ship Positions

Peter R. Cresswell

ex Algowest

Last reported at 2015-Apr-21 01:13 UTC. Time now 2015-Apr-28 06:47 UTC.
Position N 46°52' W 091°39'.

Length 219.2 m; beam 23.2 m; draft 8.7 m.

Type: Ship. MMSI: 316001697.

Date/timePositionNaut miles runAvg speedWind from/ knotsBaromVisibWave heightAir tempDewpointWater temp
2015-Apr-21 01:13N 46°52' W 091°39'811.7
2015-Apr-21 00:32N 46°48' W 091°49'1010.3
2015-Apr-20 23:34N 46°42' W 092°01'0 0.5
2015-Apr-20 22:33N 46°42' W 092°01'0 0.0
2015-Apr-20 21:33N 46°42' W 092°01'0 0.0
2015-Apr-20 20:33N 46°42' W 092°01'0 0.0
2015-Apr-20 19:33N 46°42' W 092°01'0 0.0
2015-Apr-20 18:33N 46°42' W 092°01'0 0.0
2015-Apr-20 17:33N 46°42' W 092°01'0 0.0
2015-Apr-20 16:33N 46°42' W 092°01'0 0.0
2015-Apr-20 15:33N 46°42' W 092°01'0 0.0
2015-Apr-20 14:33N 46°42' W 092°01'0 0.0
2015-Apr-20 13:33N 46°42' W 092°01'0 0.0
2015-Apr-20 12:31N 46°42' W 092°01'0 0.2
2015-Apr-20 11:33N 46°42' W 092°01'2 2.2
2015-Apr-20 10:33N 46°43' W 091°58'0 0.0
2015-Apr-20 09:33N 46°43' W 091°58'0 0.0
2015-Apr-20 08:33N 46°43' W 091°58'0 0.0
2015-Apr-20 07:33N 46°43' W 091°58'0 0.1
2015-Apr-20 06:33N 46°43' W 091°58'0 0.1
2015-Apr-20 05:33N 46°43' W 091°58'0 0.0
2015-Apr-20 04:33N 46°43' W 091°58'0 0.0
2015-Apr-20 03:33N 46°43' W 091°58'0 0.1
2015-Apr-20 02:32N 46°43' W 091°59'0 0.0
2015-Apr-20 01:33N 46°43' W 091°58'0 0.0
2015-Apr-20 00:32N 46°43' W 091°58'0 0.0
2015-Apr-19 23:33N 46°43' W 091°58'0 0.0
2015-Apr-19 22:33N 46°43' W 091°58'0 0.0
2015-Apr-19 21:33N 46°43' W 091°58'0 0.0
2015-Apr-19 20:33N 46°43' W 091°58'0 0.0
2015-Apr-19 19:33N 46°43' W 091°58'0 0.0
2015-Apr-19 18:33N 46°43' W 091°59'0 0.0
2015-Apr-19 17:33N 46°43' W 091°58'0 0.1
2015-Apr-19 16:33N 46°43' W 091°58'8 8.2
2015-Apr-19 15:33N 46°47' W 091°48'1212.2
2015-Apr-19 14:33N 46°53' W 091°32'278 8.1
2015-Apr-18 04:17N 46°38' W 084°47'4 6.1
2015-Apr-18 03:32N 46°35' W 084°43'7 7.5
2015-Apr-18 02:33N 46°29' W 084°36'6 5.8
2015-Apr-18 01:33N 46°29' W 084°27'13 3.0
2015-Apr-17 21:23N 46°21' W 084°12'23 7.0
2015-Apr-17 18:08N 46°02' W 083°55'4 7.7
2015-Apr-17 17:33N 45°58' W 083°53'1511.1
2015-Apr-17 16:11N 45°45' W 083°41'812.1
2015-Apr-17 15:33N 45°40' W 083°33'  
2015-Apr-14 08:28N 42°21' W 080°37'910.1
2015-Apr-14 07:33N 42°24' W 080°25'1010.0
2015-Apr-14 06:32N 42°28' W 080°13'10 9.9
2015-Apr-14 05:33N 42°31' W 080°00'1111.0
2015-Apr-14 04:32N 42°37' W 079°47'  

Dump ship's entire track history